sensor_id;sensor_type;location;lat;lon;timestamp;P1;durP1;ratioP1;P2;durP2;ratioP2
12968;SDS011;6549;53.128;8.182;2023-12-20T00:00:44;11.52;;;1.70;;
12968;SDS011;6549;53.128;8.182;2023-12-20T00:03:44;11.10;;;1.80;;
12968;SDS011;6549;53.128;8.182;2023-12-20T00:06:45;7.35;;;1.70;;
12968;SDS011;6549;53.128;8.182;2023-12-20T00:09:45;13.98;;;1.90;;
12968;SDS011;6549;53.128;8.182;2023-12-20T00:12:45;9.80;;;2.08;;
12968;SDS011;6549;53.128;8.182;2023-12-20T00:15:46;11.68;;;1.60;;
12968;SDS011;6549;53.128;8.182;2023-12-20T00:18:46;8.77;;;1.77;;
12968;SDS011;6549;53.128;8.182;2023-12-20T00:21:46;16.55;;;2.05;;
12968;SDS011;6549;53.128;8.182;2023-12-20T00:24:47;8.35;;;1.70;;
12968;SDS011;6549;53.128;8.182;2023-12-20T00:27:47;8.10;;;1.77;;
12968;SDS011;6549;53.128;8.182;2023-12-20T00:30:47;8.65;;;1.80;;
12968;SDS011;6549;53.128;8.182;2023-12-20T00:33:48;13.43;;;1.80;;
12968;SDS011;6549;53.128;8.182;2023-12-20T00:36:48;10.63;;;2.25;;
12968;SDS011;6549;53.128;8.182;2023-12-20T00:39:48;10.48;;;1.60;;
12968;SDS011;6549;53.128;8.182;2023-12-20T00:42:49;13.02;;;2.22;;
12968;SDS011;6549;53.128;8.182;2023-12-20T00:45:49;6.78;;;1.83;;
12968;SDS011;6549;53.128;8.182;2023-12-20T00:48:49;12.80;;;1.90;;
12968;SDS011;6549;53.128;8.182;2023-12-20T00:51:50;10.43;;;1.92;;
12968;SDS011;6549;53.128;8.182;2023-12-20T00:54:52;18.75;;;2.17;;
12968;SDS011;6549;53.128;8.182;2023-12-20T00:57:52;12.98;;;2.78;;
12968;SDS011;6549;53.128;8.182;2023-12-20T01:00:53;12.55;;;1.77;;
12968;SDS011;6549;53.128;8.182;2023-12-20T01:03:54;14.80;;;1.75;;
12968;SDS011;6549;53.128;8.182;2023-12-20T01:06:55;13.80;;;2.35;;
12968;SDS011;6549;53.128;8.182;2023-12-20T01:09:55;10.77;;;2.58;;
12968;SDS011;6549;53.128;8.182;2023-12-20T01:12:56;11.15;;;1.52;;
12968;SDS011;6549;53.128;8.182;2023-12-20T01:15:56;10.75;;;2.00;;
12968;SDS011;6549;53.128;8.182;2023-12-20T01:18:56;10.02;;;1.63;;
12968;SDS011;6549;53.128;8.182;2023-12-20T01:21:57;8.40;;;2.63;;
12968;SDS011;6549;53.128;8.182;2023-12-20T01:24:57;10.82;;;1.95;;
12968;SDS011;6549;53.128;8.182;2023-12-20T01:27:57;10.82;;;2.10;;
12968;SDS011;6549;53.128;8.182;2023-12-20T01:30:58;8.70;;;1.88;;
12968;SDS011;6549;53.128;8.182;2023-12-20T01:33:58;8.63;;;2.28;;
12968;SDS011;6549;53.128;8.182;2023-12-20T01:36:58;9.90;;;1.40;;
12968;SDS011;6549;53.128;8.182;2023-12-20T01:40:00;11.73;;;1.92;;
12968;SDS011;6549;53.128;8.182;2023-12-20T01:43:07;8.60;;;1.98;;
12968;SDS011;6549;53.128;8.182;2023-12-20T01:46:08;8.75;;;1.55;;
12968;SDS011;6549;53.128;8.182;2023-12-20T01:49:09;10.55;;;1.90;;
12968;SDS011;6549;53.128;8.182;2023-12-20T01:52:09;9.68;;;1.33;;
12968;SDS011;6549;53.128;8.182;2023-12-20T01:55:10;11.52;;;2.10;;
12968;SDS011;6549;53.128;8.182;2023-12-20T01:58:14;9.05;;;1.90;;
12968;SDS011;6549;53.128;8.182;2023-12-20T02:01:15;9.32;;;2.30;;
12968;SDS011;6549;53.128;8.182;2023-12-20T02:04:16;9.90;;;2.05;;
12968;SDS011;6549;53.128;8.182;2023-12-20T02:07:16;9.30;;;2.40;;
12968;SDS011;6549;53.128;8.182;2023-12-20T02:10:18;7.60;;;1.63;;
12968;SDS011;6549;53.128;8.182;2023-12-20T02:13:18;8.45;;;1.48;;
12968;SDS011;6549;53.128;8.182;2023-12-20T02:16:19;11.18;;;1.90;;
12968;SDS011;6549;53.128;8.182;2023-12-20T02:19:19;11.20;;;1.70;;
12968;SDS011;6549;53.128;8.182;2023-12-20T02:22:20;15.77;;;2.03;;
12968;SDS011;6549;53.128;8.182;2023-12-20T02:25:20;11.23;;;2.10;;
12968;SDS011;6549;53.128;8.182;2023-12-20T02:28:21;7.22;;;1.77;;
12968;SDS011;6549;53.128;8.182;2023-12-20T02:31:23;13.80;;;2.03;;
12968;SDS011;6549;53.128;8.182;2023-12-20T02:34:23;10.57;;;1.85;;
12968;SDS011;6549;53.128;8.182;2023-12-20T02:37:23;6.25;;;2.15;;
12968;SDS011;6549;53.128;8.182;2023-12-20T02:40:24;10.35;;;2.17;;
12968;SDS011;6549;53.128;8.182;2023-12-20T02:43:24;14.43;;;1.85;;
12968;SDS011;6549;53.128;8.182;2023-12-20T02:46:24;13.77;;;1.90;;
12968;SDS011;6549;53.128;8.182;2023-12-20T02:49:25;9.77;;;1.73;;
12968;SDS011;6549;53.128;8.182;2023-12-20T02:52:25;11.60;;;2.33;;
12968;SDS011;6549;53.128;8.182;2023-12-20T02:55:26;11.35;;;1.90;;
12968;SDS011;6549;53.128;8.182;2023-12-20T02:58:26;6.25;;;1.52;;
12968;SDS011;6549;53.128;8.182;2023-12-20T03:01:27;9.88;;;2.15;;
12968;SDS011;6549;53.128;8.182;2023-12-20T03:04:27;9.75;;;1.70;;
12968;SDS011;6549;53.128;8.182;2023-12-20T03:07:28;10.00;;;1.98;;
12968;SDS011;6549;53.128;8.182;2023-12-20T03:10:28;7.78;;;1.90;;
12968;SDS011;6549;53.128;8.182;2023-12-20T03:13:29;11.88;;;2.05;;
12968;SDS011;6549;53.128;8.182;2023-12-20T03:16:29;10.27;;;1.90;;
12968;SDS011;6549;53.128;8.182;2023-12-20T03:19:31;12.20;;;2.40;;
12968;SDS011;6549;53.128;8.182;2023-12-20T03:22:31;10.13;;;2.45;;
12968;SDS011;6549;53.128;8.182;2023-12-20T03:25:31;20.73;;;3.08;;
12968;SDS011;6549;53.128;8.182;2023-12-20T03:28:32;9.25;;;1.73;;
12968;SDS011;6549;53.128;8.182;2023-12-20T03:31:32;11.27;;;2.65;;
12968;SDS011;6549;53.128;8.182;2023-12-20T03:34:32;8.55;;;2.50;;
12968;SDS011;6549;53.128;8.182;2023-12-20T03:37:33;13.70;;;2.30;;
12968;SDS011;6549;53.128;8.182;2023-12-20T03:40:33;15.25;;;2.10;;
12968;SDS011;6549;53.128;8.182;2023-12-20T03:43:33;13.35;;;2.28;;
12968;SDS011;6549;53.128;8.182;2023-12-20T03:46:34;15.15;;;2.53;;
12968;SDS011;6549;53.128;8.182;2023-12-20T03:49:34;13.27;;;2.20;;
12968;SDS011;6549;53.128;8.182;2023-12-20T03:52:37;10.00;;;1.73;;
12968;SDS011;6549;53.128;8.182;2023-12-20T03:55:37;11.05;;;1.60;;
12968;SDS011;6549;53.128;8.182;2023-12-20T03:58:37;9.18;;;1.83;;
12968;SDS011;6549;53.128;8.182;2023-12-20T04:01:37;15.13;;;2.25;;
12968;SDS011;6549;53.128;8.182;2023-12-20T04:04:38;8.38;;;1.90;;
12968;SDS011;6549;53.128;8.182;2023-12-20T04:07:38;12.57;;;2.67;;
12968;SDS011;6549;53.128;8.182;2023-12-20T04:10:39;10.32;;;2.30;;
12968;SDS011;6549;53.128;8.182;2023-12-20T04:13:39;13.15;;;2.17;;
12968;SDS011;6549;53.128;8.182;2023-12-20T04:16:39;15.65;;;2.55;;
12968;SDS011;6549;53.128;8.182;2023-12-20T04:19:40;12.27;;;2.40;;
12968;SDS011;6549;53.128;8.182;2023-12-20T04:22:40;13.27;;;2.22;;
12968;SDS011;6549;53.128;8.182;2023-12-20T04:25:40;15.43;;;2.60;;
12968;SDS011;6549;53.128;8.182;2023-12-20T04:28:41;12.27;;;2.30;;
12968;SDS011;6549;53.128;8.182;2023-12-20T04:31:41;15.50;;;2.80;;
12968;SDS011;6549;53.128;8.182;2023-12-20T04:34:41;12.43;;;2.53;;
12968;SDS011;6549;53.128;8.182;2023-12-20T04:37:42;13.70;;;2.90;;
12968;SDS011;6549;53.128;8.182;2023-12-20T04:40:42;14.27;;;2.63;;
12968;SDS011;6549;53.128;8.182;2023-12-20T04:43:42;12.45;;;2.70;;
12968;SDS011;6549;53.128;8.182;2023-12-20T04:46:42;12.02;;;2.30;;
12968;SDS011;6549;53.128;8.182;2023-12-20T04:49:43;15.50;;;2.72;;
12968;SDS011;6549;53.128;8.182;2023-12-20T04:52:43;12.85;;;2.22;;
12968;SDS011;6549;53.128;8.182;2023-12-20T04:55:44;13.00;;;3.17;;
12968;SDS011;6549;53.128;8.182;2023-12-20T04:58:44;15.15;;;2.70;;
12968;SDS011;6549;53.128;8.182;2023-12-20T05:01:45;10.05;;;2.20;;
12968;SDS011;6549;53.128;8.182;2023-12-20T05:04:45;22.15;;;3.15;;
12968;SDS011;6549;53.128;8.182;2023-12-20T05:07:46;16.75;;;3.38;;
12968;SDS011;6549;53.128;8.182;2023-12-20T05:10:46;16.17;;;2.85;;
12968;SDS011;6549;53.128;8.182;2023-12-20T05:13:46;15.32;;;3.05;;
12968;SDS011;6549;53.128;8.182;2023-12-20T05:16:47;12.23;;;2.45;;
12968;SDS011;6549;53.128;8.182;2023-12-20T05:19:47;14.55;;;2.28;;
12968;SDS011;6549;53.128;8.182;2023-12-20T05:22:47;17.35;;;2.83;;
12968;SDS011;6549;53.128;8.182;2023-12-20T05:25:48;14.38;;;3.22;;
12968;SDS011;6549;53.128;8.182;2023-12-20T05:28:49;12.57;;;2.80;;
12968;SDS011;6549;53.128;8.182;2023-12-20T05:31:49;19.15;;;2.97;;
12968;SDS011;6549;53.128;8.182;2023-12-20T05:34:49;15.68;;;3.08;;
12968;SDS011;6549;53.128;8.182;2023-12-20T05:37:49;16.80;;;2.70;;
12968;SDS011;6549;53.128;8.182;2023-12-20T05:40:50;17.52;;;3.38;;
12968;SDS011;6549;53.128;8.182;2023-12-20T05:43:50;19.02;;;3.47;;
12968;SDS011;6549;53.128;8.182;2023-12-20T05:46:50;19.73;;;3.42;;
12968;SDS011;6549;53.128;8.182;2023-12-20T05:49:51;19.08;;;3.33;;
12968;SDS011;6549;53.128;8.182;2023-12-20T05:52:51;20.13;;;3.50;;
12968;SDS011;6549;53.128;8.182;2023-12-20T05:55:51;15.98;;;2.60;;
12968;SDS011;6549;53.128;8.182;2023-12-20T05:58:52;24.70;;;3.15;;
12968;SDS011;6549;53.128;8.182;2023-12-20T06:01:52;14.80;;;3.10;;
12968;SDS011;6549;53.128;8.182;2023-12-20T06:04:52;16.05;;;2.55;;
12968;SDS011;6549;53.128;8.182;2023-12-20T06:07:53;18.55;;;3.20;;
12968;SDS011;6549;53.128;8.182;2023-12-20T06:10:54;22.05;;;3.55;;
12968;SDS011;6549;53.128;8.182;2023-12-20T06:13:54;14.68;;;3.40;;
12968;SDS011;6549;53.128;8.182;2023-12-20T06:16:55;19.05;;;2.85;;
12968;SDS011;6549;53.128;8.182;2023-12-20T06:19:55;13.82;;;3.00;;
12968;SDS011;6549;53.128;8.182;2023-12-20T06:22:55;22.25;;;3.08;;
12968;SDS011;6549;53.128;8.182;2023-12-20T06:25:56;21.77;;;3.45;;
12968;SDS011;6549;53.128;8.182;2023-12-20T06:28:56;20.35;;;3.17;;
12968;SDS011;6549;53.128;8.182;2023-12-20T06:31:56;17.52;;;3.15;;
12968;SDS011;6549;53.128;8.182;2023-12-20T06:34:57;23.20;;;3.20;;
12968;SDS011;6549;53.128;8.182;2023-12-20T06:37:57;22.23;;;3.63;;
12968;SDS011;6549;53.128;8.182;2023-12-20T06:40:58;21.20;;;3.60;;
12968;SDS011;6549;53.128;8.182;2023-12-20T06:43:58;27.00;;;3.70;;
12968;SDS011;6549;53.128;8.182;2023-12-20T06:46:58;18.30;;;3.50;;
12968;SDS011;6549;53.128;8.182;2023-12-20T06:49:59;17.45;;;3.28;;
12968;SDS011;6549;53.128;8.182;2023-12-20T06:53:00;23.52;;;3.67;;
12968;SDS011;6549;53.128;8.182;2023-12-20T06:56:06;15.23;;;2.80;;
12968;SDS011;6549;53.128;8.182;2023-12-20T06:59:07;22.58;;;3.75;;
12968;SDS011;6549;53.128;8.182;2023-12-20T07:02:08;22.98;;;3.10;;
12968;SDS011;6549;53.128;8.182;2023-12-20T07:05:08;21.15;;;3.78;;
12968;SDS011;6549;53.128;8.182;2023-12-20T07:08:09;17.40;;;3.53;;
12968;SDS011;6549;53.128;8.182;2023-12-20T07:11:10;21.63;;;3.67;;
12968;SDS011;6549;53.128;8.182;2023-12-20T07:14:10;16.63;;;3.63;;
12968;SDS011;6549;53.128;8.182;2023-12-20T07:17:11;20.38;;;4.47;;
12968;SDS011;6549;53.128;8.182;2023-12-20T07:20:13;16.13;;;3.33;;
12968;SDS011;6549;53.128;8.182;2023-12-20T07:23:13;24.77;;;3.90;;
12968;SDS011;6549;53.128;8.182;2023-12-20T07:26:14;17.63;;;3.08;;
12968;SDS011;6549;53.128;8.182;2023-12-20T07:29:15;20.33;;;4.00;;
12968;SDS011;6549;53.128;8.182;2023-12-20T07:32:15;18.45;;;3.60;;
12968;SDS011;6549;53.128;8.182;2023-12-20T07:35:16;16.58;;;3.88;;
12968;SDS011;6549;53.128;8.182;2023-12-20T07:38:16;19.90;;;3.88;;
12968;SDS011;6549;53.128;8.182;2023-12-20T07:41:17;13.70;;;3.83;;
12968;SDS011;6549;53.128;8.182;2023-12-20T07:44:18;22.00;;;4.55;;
12968;SDS011;6549;53.128;8.182;2023-12-20T07:47:19;16.95;;;3.78;;
12968;SDS011;6549;53.128;8.182;2023-12-20T07:50:21;17.33;;;3.45;;
12968;SDS011;6549;53.128;8.182;2023-12-20T07:53:21;17.52;;;3.10;;
12968;SDS011;6549;53.128;8.182;2023-12-20T07:56:22;15.90;;;3.38;;
12968;SDS011;6549;53.128;8.182;2023-12-20T07:59:22;14.40;;;3.53;;
12968;SDS011;6549;53.128;8.182;2023-12-20T08:02:22;16.30;;;2.83;;
12968;SDS011;6549;53.128;8.182;2023-12-20T08:05:23;17.35;;;4.47;;
12968;SDS011;6549;53.128;8.182;2023-12-20T08:08:23;21.33;;;3.58;;
12968;SDS011;6549;53.128;8.182;2023-12-20T08:11:23;19.25;;;3.30;;
12968;SDS011;6549;53.128;8.182;2023-12-20T08:14:24;21.40;;;3.50;;
12968;SDS011;6549;53.128;8.182;2023-12-20T08:17:24;24.33;;;4.07;;
12968;SDS011;6549;53.128;8.182;2023-12-20T08:20:24;21.40;;;4.28;;
12968;SDS011;6549;53.128;8.182;2023-12-20T08:23:25;23.55;;;4.15;;
12968;SDS011;6549;53.128;8.182;2023-12-20T08:26:25;18.98;;;3.35;;
12968;SDS011;6549;53.128;8.182;2023-12-20T08:29:26;22.65;;;3.42;;
12968;SDS011;6549;53.128;8.182;2023-12-20T08:32:26;16.20;;;3.47;;
12968;SDS011;6549;53.128;8.182;2023-12-20T08:35:26;18.60;;;3.22;;
12968;SDS011;6549;53.128;8.182;2023-12-20T08:38:27;18.83;;;3.00;;
12968;SDS011;6549;53.128;8.182;2023-12-20T08:41:27;24.33;;;3.70;;
12968;SDS011;6549;53.128;8.182;2023-12-20T08:44:27;26.35;;;3.60;;
12968;SDS011;6549;53.128;8.182;2023-12-20T08:47:28;16.40;;;3.10;;
12968;SDS011;6549;53.128;8.182;2023-12-20T08:50:28;23.05;;;4.10;;
12968;SDS011;6549;53.128;8.182;2023-12-20T08:53:29;25.20;;;4.45;;
12968;SDS011;6549;53.128;8.182;2023-12-20T08:56:29;21.95;;;4.40;;
12968;SDS011;6549;53.128;8.182;2023-12-20T08:59:30;17.17;;;3.17;;
12968;SDS011;6549;53.128;8.182;2023-12-20T09:02:30;19.77;;;4.13;;
12968;SDS011;6549;53.128;8.182;2023-12-20T09:05:31;23.67;;;3.60;;
12968;SDS011;6549;53.128;8.182;2023-12-20T09:08:31;24.60;;;4.15;;
12968;SDS011;6549;53.128;8.182;2023-12-20T09:11:32;18.08;;;3.90;;
12968;SDS011;6549;53.128;8.182;2023-12-20T09:14:32;20.98;;;3.78;;
12968;SDS011;6549;53.128;8.182;2023-12-20T09:17:32;21.17;;;3.75;;
12968;SDS011;6549;53.128;8.182;2023-12-20T09:20:33;18.27;;;3.78;;
12968;SDS011;6549;53.128;8.182;2023-12-20T09:23:34;14.40;;;2.50;;
12968;SDS011;6549;53.128;8.182;2023-12-20T09:26:34;6.57;;;1.30;;
12968;SDS011;6549;53.128;8.182;2023-12-20T09:29:35;4.50;;;0.93;;
12968;SDS011;6549;53.128;8.182;2023-12-20T09:32:35;2.70;;;0.82;;
12968;SDS011;6549;53.128;8.182;2023-12-20T09:35:35;2.38;;;0.80;;
12968;SDS011;6549;53.128;8.182;2023-12-20T09:38:36;4.43;;;0.98;;
12968;SDS011;6549;53.128;8.182;2023-12-20T09:41:37;3.60;;;0.70;;
12968;SDS011;6549;53.128;8.182;2023-12-20T09:44:42;1.35;;;0.70;;
12968;SDS011;6549;53.128;8.182;2023-12-20T09:47:44;3.00;;;0.70;;
12968;SDS011;6549;53.128;8.182;2023-12-20T09:50:45;2.95;;;0.85;;
12968;SDS011;6549;53.128;8.182;2023-12-20T09:53:46;3.00;;;1.00;;
12968;SDS011;6549;53.128;8.182;2023-12-20T09:56:49;7.55;;;1.20;;
12968;SDS011;6549;53.128;8.182;2023-12-20T09:59:50;5.82;;;1.00;;
12968;SDS011;6549;53.128;8.182;2023-12-20T10:02:52;5.57;;;1.05;;
12968;SDS011;6549;53.128;8.182;2023-12-20T10:05:58;8.80;;;1.08;;
12968;SDS011;6549;53.128;8.182;2023-12-20T10:09:00;5.47;;;1.02;;
12968;SDS011;6549;53.128;8.182;2023-12-20T10:12:01;5.07;;;0.80;;
12968;SDS011;6549;53.128;8.182;2023-12-20T10:15:01;4.70;;;1.27;;
12968;SDS011;6549;53.128;8.182;2023-12-20T10:18:02;5.30;;;0.85;;
12968;SDS011;6549;53.128;8.182;2023-12-20T10:21:03;4.13;;;1.02;;
12968;SDS011;6549;53.128;8.182;2023-12-20T10:24:04;3.25;;;0.98;;
12968;SDS011;6549;53.128;8.182;2023-12-20T10:27:05;10.50;;;1.38;;
12968;SDS011;6549;53.128;8.182;2023-12-20T10:30:07;2.95;;;1.27;;
12968;SDS011;6549;53.128;8.182;2023-12-20T10:33:08;6.28;;;1.67;;
12968;SDS011;6549;53.128;8.182;2023-12-20T10:36:09;6.50;;;1.13;;
12968;SDS011;6549;53.128;8.182;2023-12-20T10:39:10;6.90;;;1.35;;
12968;SDS011;6549;53.128;8.182;2023-12-20T10:42:12;9.52;;;1.70;;
12968;SDS011;6549;53.128;8.182;2023-12-20T10:45:13;7.18;;;1.35;;
12968;SDS011;6549;53.128;8.182;2023-12-20T10:48:15;4.10;;;1.30;;
12968;SDS011;6549;53.128;8.182;2023-12-20T10:51:17;15.63;;;1.35;;
12968;SDS011;6549;53.128;8.182;2023-12-20T10:54:18;9.40;;;1.50;;
12968;SDS011;6549;53.128;8.182;2023-12-20T10:57:18;6.82;;;1.40;;
12968;SDS011;6549;53.128;8.182;2023-12-20T11:00:19;8.45;;;1.35;;
12968;SDS011;6549;53.128;8.182;2023-12-20T11:03:22;6.53;;;1.25;;
12968;SDS011;6549;53.128;8.182;2023-12-20T11:09:57;6.05;;;1.17;;
12968;SDS011;6549;53.128;8.182;2023-12-20T11:13:12;7.55;;;1.50;;
12968;SDS011;6549;53.128;8.182;2023-12-20T11:16:17;6.10;;;1.25;;
12968;SDS011;6549;53.128;8.182;2023-12-20T11:19:18;11.65;;;1.40;;
12968;SDS011;6549;53.128;8.182;2023-12-20T11:22:21;11.25;;;1.35;;
12968;SDS011;6549;53.128;8.182;2023-12-20T11:25:22;8.73;;;1.13;;
12968;SDS011;6549;53.128;8.182;2023-12-20T11:28:24;9.85;;;1.48;;
12968;SDS011;6549;53.128;8.182;2023-12-20T11:31:26;9.93;;;1.40;;
12968;SDS011;6549;53.128;8.182;2023-12-20T11:34:27;10.27;;;1.75;;
12968;SDS011;6549;53.128;8.182;2023-12-20T11:37:32;13.35;;;2.00;;
12968;SDS011;6549;53.128;8.182;2023-12-20T11:40:35;10.18;;;2.40;;
12968;SDS011;6549;53.128;8.182;2023-12-20T11:43:37;11.95;;;1.63;;
12968;SDS011;6549;53.128;8.182;2023-12-20T11:46:38;8.77;;;2.08;;
12968;SDS011;6549;53.128;8.182;2023-12-20T11:49:39;11.25;;;2.17;;
12968;SDS011;6549;53.128;8.182;2023-12-20T11:52:40;13.00;;;1.67;;
12968;SDS011;6549;53.128;8.182;2023-12-20T11:55:40;13.07;;;1.70;;
12968;SDS011;6549;53.128;8.182;2023-12-20T11:58:41;9.80;;;1.77;;
12968;SDS011;6549;53.128;8.182;2023-12-20T12:01:47;8.13;;;1.40;;
12968;SDS011;6549;53.128;8.182;2023-12-20T12:04:49;12.13;;;2.08;;
12968;SDS011;6549;53.128;8.182;2023-12-20T12:07:53;12.05;;;2.10;;
12968;SDS011;6549;53.128;8.182;2023-12-20T12:10:54;15.32;;;2.17;;
12968;SDS011;6549;53.128;8.182;2023-12-20T12:13:54;14.05;;;2.22;;
12968;SDS011;6549;53.128;8.182;2023-12-20T12:16:54;10.25;;;1.73;;
12968;SDS011;6549;53.128;8.182;2023-12-20T12:20:02;14.85;;;2.72;;
12968;SDS011;6549;53.128;8.182;2023-12-20T12:23:05;16.05;;;2.35;;
12968;SDS011;6549;53.128;8.182;2023-12-20T12:26:06;9.70;;;2.07;;
12968;SDS011;6549;53.128;8.182;2023-12-20T12:29:09;14.57;;;2.03;;
12968;SDS011;6549;53.128;8.182;2023-12-20T12:32:10;15.55;;;1.83;;
12968;SDS011;6549;53.128;8.182;2023-12-20T12:35:10;15.50;;;2.08;;
12968;SDS011;6549;53.128;8.182;2023-12-20T12:38:11;11.90;;;2.67;;
12968;SDS011;6549;53.128;8.182;2023-12-20T12:41:12;14.82;;;2.33;;
12968;SDS011;6549;53.128;8.182;2023-12-20T12:44:13;17.37;;;2.60;;
12968;SDS011;6549;53.128;8.182;2023-12-20T12:47:14;8.18;;;1.67;;
12968;SDS011;6549;53.128;8.182;2023-12-20T12:50:15;13.55;;;2.10;;
12968;SDS011;6549;53.128;8.182;2023-12-20T12:53:15;13.73;;;2.60;;
12968;SDS011;6549;53.128;8.182;2023-12-20T12:56:16;12.45;;;2.10;;
12968;SDS011;6549;53.128;8.182;2023-12-20T12:59:16;12.48;;;2.20;;
12968;SDS011;6549;53.128;8.182;2023-12-20T13:02:17;14.25;;;2.17;;
12968;SDS011;6549;53.128;8.182;2023-12-20T13:05:17;13.02;;;2.15;;
12968;SDS011;6549;53.128;8.182;2023-12-20T13:08:17;11.40;;;1.95;;
12968;SDS011;6549;53.128;8.182;2023-12-20T13:11:18;14.75;;;2.55;;
12968;SDS011;6549;53.128;8.182;2023-12-20T13:14:18;12.40;;;1.73;;
12968;SDS011;6549;53.128;8.182;2023-12-20T13:17:19;13.20;;;2.13;;
12968;SDS011;6549;53.128;8.182;2023-12-20T13:20:19;14.93;;;2.00;;
12968;SDS011;6549;53.128;8.182;2023-12-20T13:23:20;12.20;;;1.80;;
12968;SDS011;6549;53.128;8.182;2023-12-20T13:26:20;11.88;;;2.05;;
12968;SDS011;6549;53.128;8.182;2023-12-20T13:29:20;11.40;;;1.80;;
12968;SDS011;6549;53.128;8.182;2023-12-20T13:32:21;14.45;;;2.10;;
12968;SDS011;6549;53.128;8.182;2023-12-20T13:35:21;13.43;;;2.40;;
12968;SDS011;6549;53.128;8.182;2023-12-20T13:38:21;10.68;;;2.22;;
12968;SDS011;6549;53.128;8.182;2023-12-20T13:41:22;12.30;;;1.95;;
12968;SDS011;6549;53.128;8.182;2023-12-20T13:44:22;13.25;;;1.80;;
12968;SDS011;6549;53.128;8.182;2023-12-20T13:47:22;10.90;;;2.13;;
12968;SDS011;6549;53.128;8.182;2023-12-20T13:50:23;16.50;;;2.05;;
12968;SDS011;6549;53.128;8.182;2023-12-20T13:53:23;15.68;;;2.97;;
12968;SDS011;6549;53.128;8.182;2023-12-20T13:56:23;15.90;;;2.20;;
12968;SDS011;6549;53.128;8.182;2023-12-20T13:59:24;8.80;;;1.75;;
12968;SDS011;6549;53.128;8.182;2023-12-20T14:02:24;11.85;;;1.73;;
12968;SDS011;6549;53.128;8.182;2023-12-20T14:05:26;14.07;;;2.20;;
12968;SDS011;6549;53.128;8.182;2023-12-20T14:08:28;14.93;;;2.20;;
12968;SDS011;6549;53.128;8.182;2023-12-20T14:11:28;10.50;;;1.95;;
12968;SDS011;6549;53.128;8.182;2023-12-20T14:14:29;12.68;;;2.47;;
12968;SDS011;6549;53.128;8.182;2023-12-20T14:17:29;16.65;;;2.15;;
12968;SDS011;6549;53.128;8.182;2023-12-20T14:20:31;14.07;;;2.10;;
12968;SDS011;6549;53.128;8.182;2023-12-20T14:23:34;10.80;;;1.85;;
12968;SDS011;6549;53.128;8.182;2023-12-20T14:26:35;9.85;;;2.20;;
12968;SDS011;6549;53.128;8.182;2023-12-20T14:29:37;17.70;;;2.72;;
12968;SDS011;6549;53.128;8.182;2023-12-20T14:32:37;9.43;;;2.42;;
12968;SDS011;6549;53.128;8.182;2023-12-20T14:35:38;13.55;;;2.20;;
12968;SDS011;6549;53.128;8.182;2023-12-20T14:38:38;12.55;;;2.40;;
12968;SDS011;6549;53.128;8.182;2023-12-20T14:41:39;9.52;;;1.85;;
12968;SDS011;6549;53.128;8.182;2023-12-20T14:44:42;13.18;;;2.10;;
12968;SDS011;6549;53.128;8.182;2023-12-20T14:47:43;11.32;;;1.95;;
12968;SDS011;6549;53.128;8.182;2023-12-20T14:50:44;13.35;;;1.70;;
12968;SDS011;6549;53.128;8.182;2023-12-20T14:53:44;12.63;;;2.35;;
12968;SDS011;6549;53.128;8.182;2023-12-20T14:59:47;9.60;;;1.75;;
12968;SDS011;6549;53.128;8.182;2023-12-20T15:02:48;8.38;;;1.85;;
12968;SDS011;6549;53.128;8.182;2023-12-20T15:05:49;9.90;;;1.95;;
12968;SDS011;6549;53.128;8.182;2023-12-20T15:08:49;12.07;;;2.25;;
12968;SDS011;6549;53.128;8.182;2023-12-20T15:11:51;12.13;;;2.17;;
12968;SDS011;6549;53.128;8.182;2023-12-20T15:14:52;10.75;;;2.53;;
12968;SDS011;6549;53.128;8.182;2023-12-20T15:17:52;12.90;;;1.63;;
12968;SDS011;6549;53.128;8.182;2023-12-20T15:20:52;13.43;;;2.25;;
12968;SDS011;6549;53.128;8.182;2023-12-20T15:23:53;13.02;;;2.05;;
12968;SDS011;6549;53.128;8.182;2023-12-20T15:26:53;18.13;;;2.80;;
12968;SDS011;6549;53.128;8.182;2023-12-20T15:29:54;11.55;;;1.90;;
12968;SDS011;6549;53.128;8.182;2023-12-20T15:32:56;11.77;;;2.10;;
12968;SDS011;6549;53.128;8.182;2023-12-20T15:35:57;9.55;;;1.88;;
12968;SDS011;6549;53.128;8.182;2023-12-20T15:38:57;10.07;;;1.80;;
12968;SDS011;6549;53.128;8.182;2023-12-20T15:41:57;12.27;;;1.90;;
12968;SDS011;6549;53.128;8.182;2023-12-20T15:44:57;8.98;;;1.75;;
12968;SDS011;6549;53.128;8.182;2023-12-20T15:47:58;9.95;;;1.98;;
12968;SDS011;6549;53.128;8.182;2023-12-20T15:50:59;7.82;;;1.88;;
12968;SDS011;6549;53.128;8.182;2023-12-20T15:53:59;10.75;;;1.63;;
12968;SDS011;6549;53.128;8.182;2023-12-20T15:57:05;9.82;;;1.65;;
12968;SDS011;6549;53.128;8.182;2023-12-20T16:00:06;12.10;;;2.10;;
12968;SDS011;6549;53.128;8.182;2023-12-20T16:03:07;8.45;;;2.03;;
12968;SDS011;6549;53.128;8.182;2023-12-20T16:06:08;7.40;;;1.58;;
12968;SDS011;6549;53.128;8.182;2023-12-20T16:09:10;6.37;;;1.37;;
12968;SDS011;6549;53.128;8.182;2023-12-20T16:12:10;7.30;;;1.75;;
12968;SDS011;6549;53.128;8.182;2023-12-20T16:15:11;5.88;;;2.00;;
12968;SDS011;6549;53.128;8.182;2023-12-20T16:18:11;7.05;;;2.00;;
12968;SDS011;6549;53.128;8.182;2023-12-20T16:21:11;9.02;;;1.92;;
12968;SDS011;6549;53.128;8.182;2023-12-20T16:24:12;6.10;;;1.67;;
12968;SDS011;6549;53.128;8.182;2023-12-20T16:27:12;9.32;;;1.73;;
12968;SDS011;6549;53.128;8.182;2023-12-20T16:30:12;9.82;;;1.83;;
12968;SDS011;6549;53.128;8.182;2023-12-20T16:33:13;9.63;;;1.80;;
12968;SDS011;6549;53.128;8.182;2023-12-20T16:36:13;5.88;;;1.50;;
12968;SDS011;6549;53.128;8.182;2023-12-20T16:39:14;4.03;;;1.30;;
12968;SDS011;6549;53.128;8.182;2023-12-20T16:42:14;4.80;;;1.60;;
12968;SDS011;6549;53.128;8.182;2023-12-20T16:45:14;4.53;;;1.90;;
12968;SDS011;6549;53.128;8.182;2023-12-20T16:48:15;9.48;;;1.70;;
12968;SDS011;6549;53.128;8.182;2023-12-20T16:51:15;7.50;;;2.13;;
12968;SDS011;6549;53.128;8.182;2023-12-20T16:54:15;10.40;;;1.98;;
12968;SDS011;6549;53.128;8.182;2023-12-20T16:57:16;7.38;;;1.75;;
12968;SDS011;6549;53.128;8.182;2023-12-20T17:00:18;7.75;;;2.15;;
12968;SDS011;6549;53.128;8.182;2023-12-20T17:03:18;10.10;;;2.92;;
12968;SDS011;6549;53.128;8.182;2023-12-20T17:06:20;15.65;;;7.57;;
12968;SDS011;6549;53.128;8.182;2023-12-20T17:09:20;7.95;;;2.17;;
12968;SDS011;6549;53.128;8.182;2023-12-20T17:12:20;8.43;;;1.77;;
12968;SDS011;6549;53.128;8.182;2023-12-20T17:15:21;9.77;;;2.03;;
12968;SDS011;6549;53.128;8.182;2023-12-20T17:18:21;9.77;;;2.72;;
12968;SDS011;6549;53.128;8.182;2023-12-20T17:21:21;7.45;;;1.67;;
12968;SDS011;6549;53.128;8.182;2023-12-20T17:24:22;11.07;;;2.38;;
12968;SDS011;6549;53.128;8.182;2023-12-20T17:27:22;6.75;;;2.00;;
12968;SDS011;6549;53.128;8.182;2023-12-20T17:30:23;7.22;;;1.83;;
12968;SDS011;6549;53.128;8.182;2023-12-20T17:33:23;7.25;;;2.33;;
12968;SDS011;6549;53.128;8.182;2023-12-20T17:36:23;9.55;;;2.50;;
12968;SDS011;6549;53.128;8.182;2023-12-20T17:39:24;8.88;;;2.30;;
12968;SDS011;6549;53.128;8.182;2023-12-20T17:42:24;8.45;;;2.38;;
12968;SDS011;6549;53.128;8.182;2023-12-20T17:45:24;12.25;;;2.60;;
12968;SDS011;6549;53.128;8.182;2023-12-20T17:48:25;6.50;;;2.20;;
12968;SDS011;6549;53.128;8.182;2023-12-20T17:51:25;9.25;;;2.70;;
12968;SDS011;6549;53.128;8.182;2023-12-20T17:54:26;12.25;;;4.32;;
12968;SDS011;6549;53.128;8.182;2023-12-20T17:57:29;8.13;;;3.13;;
12968;SDS011;6549;53.128;8.182;2023-12-20T18:00:31;12.73;;;2.72;;
12968;SDS011;6549;53.128;8.182;2023-12-20T18:03:34;13.43;;;5.20;;
12968;SDS011;6549;53.128;8.182;2023-12-20T18:06:34;22.50;;;5.95;;
12968;SDS011;6549;53.128;8.182;2023-12-20T18:09:34;18.13;;;6.18;;
12968;SDS011;6549;53.128;8.182;2023-12-20T18:12:35;17.92;;;6.35;;
12968;SDS011;6549;53.128;8.182;2023-12-20T18:15:35;18.75;;;6.18;;
12968;SDS011;6549;53.128;8.182;2023-12-20T18:18:36;13.48;;;4.30;;
12968;SDS011;6549;53.128;8.182;2023-12-20T18:21:36;16.85;;;6.68;;